Time;durP1;ratioP1;P1;durP2;ratioP2;P2;SDS_P1;SDS_P2;PMS_P1;PMS_P2;Temp;Humidity;BMP_temperature;BMP_pressure;BME280_temperature;BME280_humidity;BME280_pressure;Samples;Min_cycle;Max_cycle;Signal;HPM_P1;HPM_P2
2023/12/13 00:00:00;;;;;;;1.20;0.90;;;23.10;50.90;;;;;;3110292;28;20184;-47
2023/12/13 00:01:31;;;;;;;1.08;0.93;;;23.10;50.60;;;;;;3109995;28;20511;-46
2023/12/13 00:03:04;;;;;;;1.30;0.98;;;23.20;50.60;;;;;;3108651;28;20092;-46
2023/12/13 00:04:35;;;;;;;1.10;1.00;;;23.20;50.50;;;;;;3110212;28;20069;-45
2023/12/13 00:06:07;;;;;;;1.30;0.90;;;23.20;50.60;;;;;;3107991;28;20480;-44
2023/12/13 00:07:39;;;;;;;1.20;0.98;;;23.10;50.50;;;;;;3108424;28;20504;-43
2023/12/13 00:09:09;;;;;;;1.00;0.90;;;23.10;50.50;;;;;;3105396;28;20081;-46
2023/12/13 00:10:41;;;;;;;1.52;1.00;;;23.10;50.80;;;;;;3105247;28;20041;-43
2023/12/13 00:12:12;;;;;;;1.15;1.05;;;23.00;50.80;;;;;;3107417;28;20069;-48
2023/12/13 00:13:44;;;;;;;1.02;0.98;;;23.10;50.80;;;;;;3109547;28;20049;-42
2023/12/13 00:15:16;;;;;;;2.03;1.00;;;22.90;50.80;;;;;;3111168;28;20133;-44
2023/12/13 00:16:46;;;;;;;2.78;1.10;;;22.90;50.90;;;;;;3111111;28;20405;-43
2023/12/13 00:18:19;;;;;;;2.53;1.00;;;23.00;50.80;;;;;;3108285;28;20038;-44
2023/12/13 00:19:50;;;;;;;1.90;1.00;;;22.90;50.70;;;;;;3109779;28;20050;-49
2023/12/13 00:21:21;;;;;;;1.65;0.90;;;22.80;50.90;;;;;;3110717;28;20049;-44
2023/12/13 00:22:52;;;;;;;1.23;1.00;;;22.90;50.90;;;;;;3110907;28;20049;-46
2023/12/13 00:24:24;;;;;;;0.90;0.90;;;22.90;50.70;;;;;;3109695;28;20404;-43
2023/12/13 00:25:54;;;;;;;1.75;0.82;;;22.90;50.90;;;;;;3111218;28;20050;-44
2023/12/13 00:27:26;;;;;;;1.17;0.98;;;22.80;50.90;;;;;;3111117;28;20048;-46
2023/12/13 00:28:57;;;;;;;1.33;0.90;;;22.80;51.10;;;;;;3110851;28;20053;-42
2023/12/13 00:30:28;;;;;;;2.10;0.90;;;22.90;50.80;;;;;;3110913;28;20069;-44
2023/12/13 00:31:59;;;;;;;2.53;1.08;;;23.00;50.60;;;;;;3110080;28;20401;-43
2023/12/13 00:33:33;;;;;;;1.00;0.90;;;22.90;50.80;;;;;;3110555;28;20049;-43
2023/12/13 00:35:04;;;;;;;0.98;0.90;;;22.90;50.80;;;;;;3110831;28;20049;-43
2023/12/13 00:36:36;;;;;;;3.67;0.90;;;22.90;50.60;;;;;;3110871;28;20041;-46
2023/12/13 00:38:08;;;;;;;1.05;0.90;;;22.80;50.70;;;;;;3108780;28;20566;-41
2023/12/13 00:39:40;;;;;;;;;;;22.80;50.80;;;;;;3108121;28;20416;-45
2023/12/13 00:41:11;;;;;;;0.80;0.80;;;22.90;50.70;;;;;;3110987;28;19934;-43
2023/12/13 00:42:42;;;;;;;0.98;0.90;;;22.90;50.60;;;;;;3110583;28;20070;-43
2023/12/13 00:44:13;;;;;;;1.10;0.85;;;22.80;50.70;;;;;;3109775;28;20046;-50
2023/12/13 00:45:44;;;;;;;1.27;0.90;;;22.80;50.70;;;;;;3111232;28;20472;-42
2023/12/13 00:47:15;;;;;;;1.40;0.90;;;22.80;50.80;;;;;;3109506;28;20053;-48
2023/12/13 00:48:48;;;;;;;1.50;0.80;;;22.80;50.80;;;;;;3108917;28;20481;-43
2023/12/13 00:50:19;;;;;;;1.00;0.90;;;22.70;51.00;;;;;;3108866;28;20184;-43
2023/12/13 00:51:50;;;;;;;1.10;0.80;;;22.70;51.10;;;;;;3109962;28;20042;-46
2023/12/13 00:53:21;;;;;;;1.15;1.00;;;22.70;51.00;;;;;;3108007;28;20041;-42
2023/12/13 00:54:53;;;;;;;0.93;0.80;;;22.70;51.00;;;;;;3110725;28;20053;-45
2023/12/13 00:56:24;;;;;;;1.10;1.00;;;22.70;50.90;;;;;;3108942;28;20141;-43
2023/12/13 00:57:56;;;;;;;0.95;0.85;;;22.80;50.70;;;;;;3110093;28;20050;-42
2023/12/13 00:59:26;;;;;;;1.02;0.88;;;22.80;50.70;;;;;;3110755;28;20050;-42
2023/12/13 01:00:58;;;;;;;3.45;0.90;;;22.80;50.60;;;;;;3109130;28;20052;-43
2023/12/13 01:02:29;;;;;;;1.20;1.00;;;22.70;50.70;;;;;;3108719;28;20050;-42
2023/12/13 01:04:02;;;;;;;1.25;1.08;;;22.70;50.70;;;;;;3105594;28;20046;-44
2023/12/13 01:05:32;;;;;;;1.38;0.88;;;22.80;50.50;;;;;;3108894;28;20041;-43
2023/12/13 01:07:04;;;;;;;0.95;0.80;;;22.80;50.50;;;;;;3110058;28;20042;-45
2023/12/13 01:08:36;;;;;;;1.57;1.00;;;22.70;50.80;;;;;;3108392;28;20503;-43
2023/12/13 01:10:09;;;;;;;1.02;0.90;;;22.60;51.10;;;;;;3106714;28;20296;-42
2023/12/13 01:11:39;;;;;;;1.17;0.80;;;22.70;50.80;;;;;;3109432;28;20081;-42
2023/12/13 01:13:11;;;;;;;0.75;0.75;;;22.70;50.80;;;;;;3110479;28;20396;-48
2023/12/13 01:14:42;;;;;;;1.75;1.10;;;22.70;50.60;;;;;;3109281;28;20471;-43
2023/12/13 01:16:13;;;;;;;1.38;1.00;;;22.60;50.60;;;;;;3109238;28;20042;-46
2023/12/13 01:17:44;;;;;;;2.53;1.00;;;22.70;50.70;;;;;;3109525;28;20476;-42
2023/12/13 01:19:17;;;;;;;1.15;0.90;;;22.60;50.70;;;;;;3109581;28;20046;-46
2023/12/13 01:20:47;;;;;;;1.00;0.90;;;22.60;50.70;;;;;;3109856;28;20057;-42
2023/12/13 01:22:19;;;;;;;0.70;0.70;;;22.60;50.60;;;;;;3110312;28;20435;-42
2023/12/13 01:23:50;;;;;;;1.05;0.85;;;22.70;50.50;;;;;;3109598;28;20480;-43
2023/12/13 01:25:21;;;;;;;1.15;1.00;;;22.60;50.60;;;;;;3109626;28;20295;-42
2023/12/13 01:26:52;;;;;;;0.80;0.60;;;22.60;50.80;;;;;;3110255;28;20061;-43
2023/12/13 01:28:23;;;;;;;0.90;0.90;;;22.50;50.90;;;;;;3109855;28;20515;-45
2023/12/13 01:29:54;;;;;;;0.80;0.77;;;22.50;50.80;;;;;;3110473;28;20053;-42
2023/12/13 01:31:26;;;;;;;1.15;0.90;;;22.50;51.00;;;;;;3108940;28;20053;-49
2023/12/13 01:32:56;;;;;;;1.17;0.90;;;22.50;50.80;;;;;;3109182;28;20050;-42
2023/12/13 01:34:29;;;;;;;1.00;0.90;;;22.70;50.50;;;;;;3110046;28;20044;-46
2023/12/13 01:36:01;;;;;;;2.25;0.90;;;22.70;50.30;;;;;;3108984;28;20046;-42
2023/12/13 01:37:32;;;;;;;1.30;0.90;;;22.70;50.10;;;;;;3106629;28;20129;-43
2023/12/13 01:39:03;;;;;;;2.00;0.90;;;22.50;50.80;;;;;;3109935;28;20665;-42
2023/12/13 01:40:35;;;;;;;0.85;0.70;;;22.50;50.60;;;;;;3108815;28;20044;-43
2023/12/13 01:42:06;;;;;;;2.45;0.90;;;22.50;50.60;;;;;;3106751;28;20046;-50
2023/12/13 01:43:37;;;;;;;0.77;0.70;;;22.50;50.60;;;;;;3108165;28;20046;-45
2023/12/13 01:45:09;;;;;;;0.73;0.70;;;22.40;50.90;;;;;;3110218;28;20518;-45
2023/12/13 01:46:41;;;;;;;0.90;0.90;;;22.40;50.90;;;;;;3110161;28;20048;-45
2023/12/13 01:48:11;;;;;;;1.00;0.90;;;22.40;50.90;;;;;;3110128;28;20054;-44
2023/12/13 01:49:44;;;;;;;0.80;0.80;;;22.30;51.10;;;;;;3109336;28;20046;-45
2023/12/13 01:51:15;;;;;;;1.15;0.90;;;22.30;51.00;;;;;;3108665;28;20053;-42
2023/12/13 01:52:47;;;;;;;0.82;0.80;;;22.40;50.70;;;;;;3109994;28;20415;-47
2023/12/13 01:54:17;;;;;;;1.00;0.90;;;22.50;50.60;;;;;;3107846;28;20056;-43
2023/12/13 01:55:49;;;;;;;0.80;0.75;;;22.40;50.60;;;;;;3110205;28;20424;-46
2023/12/13 01:57:19;;;;;;;1.02;0.93;;;22.40;50.80;;;;;;3109342;28;20045;-42
2023/12/13 01:58:51;;;;;;;0.88;0.88;;;22.30;50.90;;;;;;3110048;28;20049;-46
2023/12/13 02:00:22;;;;;;;0.68;0.68;;;22.40;50.80;;;;;;3108949;28;20057;-43
2023/12/13 02:01:54;;;;;;;0.80;0.80;;;22.40;50.90;;;;;;3109688;28;20089;-43
2023/12/13 02:03:25;;;;;;;1.40;1.00;;;22.30;50.90;;;;;;3109841;28;20069;-44
2023/12/13 02:04:58;;;;;;;0.88;0.88;;;22.30;50.90;;;;;;3108591;28;20089;-42
2023/12/13 02:06:29;;;;;;;0.98;0.85;;;22.30;50.90;;;;;;3108838;28;20046;-44
2023/12/13 02:08:01;;;;;;;2.28;0.80;;;22.30;50.80;;;;;;3109478;28;20057;-42
2023/12/13 02:09:32;;;;;;;0.90;0.80;;;22.20;51.20;;;;;;3109877;28;20046;-45
2023/12/13 02:11:04;;;;;;;0.80;0.80;;;22.30;51.20;;;;;;3109071;28;20073;-43
2023/12/13 02:12:36;;;;;;;0.90;0.80;;;22.40;50.90;;;;;;3107496;28;20422;-47
2023/12/13 02:14:06;;;;;;;0.82;0.80;;;22.40;50.70;;;;;;3106203;28;20037;-42
2023/12/13 02:15:38;;;;;;;1.10;0.85;;;22.40;50.70;;;;;;3108067;28;20056;-47
2023/12/13 02:17:09;;;;;;;1.05;0.80;;;22.30;50.90;;;;;;3109569;28;20054;-43
2023/12/13 02:18:40;;;;;;;1.00;0.70;;;22.30;51.10;;;;;;3109960;28;20046;-43
2023/12/13 02:20:13;;;;;;;1.08;0.93;;;22.30;51.10;;;;;;3109834;28;20046;-42
2023/12/13 02:21:44;;;;;;;0.73;0.73;;;22.30;50.90;;;;;;3108195;28;20054;-44
2023/12/13 02:23:16;;;;;;;1.00;0.70;;;22.30;51.10;;;;;;3107492;28;20060;-47
2023/12/13 02:24:48;;;;;;;0.70;0.70;;;22.40;51.00;;;;;;3108874;28;20137;-42
2023/12/13 02:26:19;;;;;;;1.02;0.82;;;22.30;51.10;;;;;;3108967;28;20077;-42
2023/12/13 02:27:50;;;;;;;0.93;0.70;;;22.20;51.30;;;;;;3108993;28;20054;-45
2023/12/13 02:29:21;;;;;;;0.95;0.80;;;22.30;51.20;;;;;;3109845;28;20093;-44
2023/12/13 02:30:54;;;;;;;0.70;0.70;;;22.30;51.00;;;;;;3107361;28;20053;-43
2023/12/13 02:32:25;;;;;;;0.70;0.70;;;22.30;51.00;;;;;;3108497;28;20456;-46
2023/12/13 02:33:56;;;;;;;0.95;0.80;;;22.30;51.20;;;;;;3109117;28;20046;-49
2023/12/13 02:35:28;;;;;;;1.15;0.68;;;22.30;51.20;;;;;;3109575;28;20053;-45
2023/12/13 02:36:59;;;;;;;0.82;0.80;;;22.30;51.30;;;;;;3109693;28;20508;-43
2023/12/13 02:38:31;;;;;;;0.70;0.70;;;22.30;51.30;;;;;;3108663;28;20046;-43
2023/12/13 02:40:03;;;;;;;0.90;0.77;;;22.30;51.40;;;;;;3109729;28;20056;-45
2023/12/13 02:41:35;;;;;;;0.80;0.80;;;22.20;51.40;;;;;;3108878;28;20119;-46
2023/12/13 02:43:06;;;;;;;0.85;0.73;;;22.10;51.60;;;;;;3109710;28;20053;-43
2023/12/13 02:44:38;;;;;;;1.08;0.77;;;22.20;51.50;;;;;;3109905;28;20038;-43
2023/12/13 02:46:09;;;;;;;0.70;0.70;;;22.20;51.50;;;;;;3109504;28;20077;-43
2023/12/13 02:47:42;;;;;;;0.70;0.70;;;22.10;51.60;;;;;;3109554;28;20037;-42
2023/12/13 02:49:13;;;;;;;0.73;0.60;;;22.20;51.60;;;;;;3111284;28;20060;-46
2023/12/13 02:50:45;;;;;;;0.60;0.60;;;22.10;51.60;;;;;;3109847;28;20045;-48
2023/12/13 02:52:17;;;;;;;1.05;0.80;;;22.10;51.50;;;;;;3108060;28;20073;-42
2023/12/13 02:53:49;;;;;;;0.73;0.65;;;22.10;51.60;;;;;;3108791;28;20054;-43
2023/12/13 02:55:20;;;;;;;0.80;0.80;;;22.10;51.80;;;;;;3109081;28;20085;-44
2023/12/13 02:56:51;;;;;;;1.05;0.77;;;22.20;51.60;;;;;;3107903;28;20050;-45
2023/12/13 02:58:23;;;;;;;0.60;0.60;;;22.20;51.50;;;;;;3109020;28;20049;-42
2023/12/13 02:59:53;;;;;;;1.08;0.70;;;22.10;51.60;;;;;;3109542;28;20053;-42
2023/12/13 03:01:25;;;;;;;0.82;0.68;;;22.10;51.70;;;;;;3108003;28;20050;-46
2023/12/13 03:02:56;;;;;;;0.88;0.88;;;22.10;51.80;;;;;;3108984;28;20049;-42
2023/12/13 03:04:27;;;;;;;0.80;0.70;;;22.10;51.70;;;;;;3107973;28;20038;-42
2023/12/13 03:05:58;;;;;;;0.70;0.70;;;22.10;51.70;;;;;;3107135;28;20054;-42
2023/12/13 03:07:30;;;;;;;0.55;0.55;;;22.10;51.70;;;;;;3109487;28;20038;-46
2023/12/13 03:09:03;;;;;;;0.80;0.70;;;22.20;51.40;;;;;;3104315;28;20054;-42
2023/12/13 03:10:33;;;;;;;1.05;0.60;;;22.20;51.40;;;;;;3109068;28;20137;-42
2023/12/13 03:12:05;;;;;;;0.80;0.80;;;22.20;51.40;;;;;;3110276;28;20042;-42
2023/12/13 03:13:36;;;;;;;0.70;0.70;;;22.10;51.50;;;;;;3107920;28;20053;-44
2023/12/13 03:15:09;;;;;;;0.80;0.70;;;22.10;51.40;;;;;;3110064;28;20038;-43
2023/12/13 03:16:39;;;;;;;;;;;22.10;51.50;;;;;;3112269;28;20484;-46
2023/12/13 03:18:11;;;;;;;0.57;0.57;;;22.10;51.50;;;;;;3112177;28;19917;-43
2023/12/13 03:19:41;;;;;;;0.80;0.80;;;22.10;51.60;;;;;;3111873;28;20049;-47
2023/12/13 03:21:13;;;;;;;0.60;0.60;;;22.10;51.40;;;;;;3110923;28;20068;-43
2023/12/13 03:22:44;;;;;;;0.75;0.68;;;22.20;51.20;;;;;;3111444;28;20053;-44
2023/12/13 03:24:17;;;;;;;0.70;0.70;;;22.20;51.20;;;;;;3109442;28;20045;-42
2023/12/13 03:25:47;;;;;;;1.08;0.80;;;22.20;51.10;;;;;;3110136;28;20049;-43
2023/12/13 03:27:19;;;;;;;0.57;0.50;;;22.20;51.00;;;;;;3111632;28;20056;-44
2023/12/13 03:28:50;;;;;;;1.00;0.80;;;22.10;51.20;;;;;;3110406;28;20050;-47
2023/12/13 03:30:21;;;;;;;0.60;0.60;;;22.20;51.00;;;;;;3110337;28;20082;-43
2023/12/13 03:31:52;;;;;;;0.82;0.70;;;22.20;50.90;;;;;;3110326;28;20060;-44
2023/12/13 03:33:23;;;;;;;0.90;0.60;;;22.10;51.00;;;;;;3110976;28;20046;-46
2023/12/13 03:34:54;;;;;;;0.77;0.60;;;22.10;51.00;;;;;;3110915;28;20041;-50
2023/12/13 03:36:26;;;;;;;0.73;0.60;;;22.00;51.20;;;;;;3111135;28;20052;-44
2023/12/13 03:37:56;;;;;;;0.60;0.60;;;22.10;50.90;;;;;;3111110;28;20057;-45
2023/12/13 03:39:29;;;;;;;0.50;0.50;;;22.20;50.90;;;;;;3110473;28;20046;-43
2023/12/13 03:41:00;;;;;;;0.68;0.68;;;22.10;50.90;;;;;;3111614;28;20054;-42
2023/12/13 03:42:31;;;;;;;0.60;0.60;;;22.10;51.00;;;;;;3110574;28;20041;-45
2023/12/13 03:44:02;;;;;;;0.88;0.60;;;22.10;51.10;;;;;;3109476;28;20053;-42
2023/12/13 03:45:34;;;;;;;0.65;0.65;;;21.90;51.30;;;;;;3109453;28;20420;-43
2023/12/13 03:47:04;;;;;;;0.60;0.60;;;22.00;51.20;;;;;;3111053;28;20049;-47
2023/12/13 03:48:36;;;;;;;0.85;0.85;;;22.00;51.20;;;;;;3111741;28;20042;-45
2023/12/13 03:50:08;;;;;;;0.55;0.55;;;22.00;51.10;;;;;;3111628;28;20416;-46
2023/12/13 03:51:43;;;;;;;0.82;0.60;;;22.00;51.20;;;;;;3109799;28;20060;-48
2023/12/13 03:53:14;;;;;;;0.75;0.60;;;21.90;51.20;;;;;;3109967;28;20412;-43
2023/12/13 03:54:47;;;;;;;0.60;0.60;;;22.10;51.00;;;;;;3107377;28;20038;-42
2023/12/13 03:56:17;;;;;;;0.88;0.60;;;22.10;50.60;;;;;;3111285;28;20049;-44
2023/12/13 03:57:49;;;;;;;0.60;0.60;;;22.10;50.60;;;;;;3111110;28;20397;-42
2023/12/13 03:59:19;;;;;;;0.60;0.60;;;22.20;50.40;;;;;;3111485;28;20052;-47
2023/12/13 04:00:51;;;;;;;0.57;0.55;;;22.20;50.40;;;;;;3109731;28;20053;-42
2023/12/13 04:02:22;;;;;;;0.63;0.60;;;21.90;50.90;;;;;;3108826;28;20046;-43
2023/12/13 04:03:53;;;;;;;0.52;0.52;;;22.00;51.20;;;;;;3111453;28;20542;-42
2023/12/13 04:05:24;;;;;;;0.80;0.50;;;22.00;51.20;;;;;;3111235;28;20069;-43
2023/12/13 04:06:55;;;;;;;0.60;0.50;;;22.20;51.00;;;;;;3110952;28;20682;-42
2023/12/13 04:08:26;;;;;;;0.60;0.60;;;22.40;50.70;;;;;;3109286;28;20054;-42
2023/12/13 04:09:59;;;;;;;0.60;0.52;;;22.60;50.50;;;;;;3110005;28;20054;-42
2023/12/13 04:11:30;;;;;;;0.70;0.60;;;22.70;50.30;;;;;;3108760;28;20416;-45
2023/12/13 04:13:01;;;;;;;0.50;0.50;;;22.80;50.10;;;;;;3111068;28;20049;-43
2023/12/13 04:14:32;;;;;;;0.47;0.47;;;22.80;50.20;;;;;;3111416;28;20057;-45
2023/12/13 04:16:04;;;;;;;0.60;0.60;;;22.80;50.20;;;;;;3109497;28;20056;-42
2023/12/13 04:17:35;;;;;;;0.60;0.60;;;22.80;50.30;;;;;;3110202;28;20065;-44
2023/12/13 04:19:06;;;;;;;0.60;0.60;;;22.80;50.60;;;;;;3110951;28;20518;-45
2023/12/13 04:20:38;;;;;;;0.95;0.70;;;22.80;50.70;;;;;;3111351;28;20046;-42
2023/12/13 04:22:08;;;;;;;0.60;0.60;;;22.90;50.70;;;;;;3107776;28;20041;-48
2023/12/13 04:23:40;;;;;;;0.50;0.50;;;22.90;50.60;;;;;;3110565;28;20037;-44
2023/12/13 04:25:13;;;;;;;0.50;0.50;;;22.90;50.70;;;;;;3103759;28;20046;-43
2023/12/13 04:26:44;;;;;;;0.55;0.50;;;23.00;50.70;;;;;;3110914;28;20681;-42
2023/12/13 04:28:15;;;;;;;0.60;0.60;;;23.10;50.60;;;;;;3111122;28;20065;-47
2023/12/13 04:29:46;;;;;;;0.80;0.60;;;23.10;50.60;;;;;;3110105;28;20049;-42
2023/12/13 04:31:17;;;;;;;0.60;0.52;;;23.10;50.50;;;;;;3110299;28;20052;-45
2023/12/13 04:32:48;;;;;;;0.80;0.60;;;23.20;50.40;;;;;;3109667;28;20501;-44
2023/12/13 04:34:20;;;;;;;0.70;0.50;;;23.20;50.50;;;;;;3111072;28;20041;-44
2023/12/13 04:35:50;;;;;;;0.50;0.50;;;23.20;50.40;;;;;;3111289;28;20061;-42
2023/12/13 04:37:22;;;;;;;0.45;0.45;;;23.20;50.20;;;;;;3108625;28;20038;-43
2023/12/13 04:38:53;;;;;;;1.00;0.70;;;23.30;50.30;;;;;;3107869;28;20045;-47
2023/12/13 04:40:26;;;;;;;0.60;0.60;;;23.30;50.20;;;;;;3109337;28;20042;-45
2023/12/13 04:41:56;;;;;;;0.57;0.57;;;23.40;50.20;;;;;;3108623;28;20054;-42
2023/12/13 04:43:28;;;;;;;0.73;0.60;;;23.40;50.10;;;;;;3109525;28;20049;-48
2023/12/13 04:44:58;;;;;;;0.50;0.50;;;23.30;50.10;;;;;;3110921;28;20046;-42
2023/12/13 04:46:30;;;;;;;0.50;0.50;;;23.40;50.20;;;;;;3108460;28;20053;-47
2023/12/13 04:48:01;;;;;;;0.50;0.50;;;23.40;50.20;;;;;;3110934;28;20041;-43
2023/12/13 04:49:33;;;;;;;0.40;0.40;;;23.40;50.30;;;;;;3110811;28;20057;-44
2023/12/13 04:51:04;;;;;;;0.45;0.40;;;23.30;50.40;;;;;;3108807;28;20053;-43
2023/12/13 04:52:36;;;;;;;0.55;0.55;;;23.40;50.40;;;;;;3108457;28;20048;-42
2023/12/13 04:54:06;;;;;;;0.52;0.52;;;23.40;50.50;;;;;;3105968;28;20058;-43
2023/12/13 04:55:39;;;;;;;0.50;0.50;;;23.50;50.40;;;;;;3109106;28;20100;-43
2023/12/13 04:57:10;;;;;;;0.60;0.60;;;23.60;50.30;;;;;;3110487;28;20531;-43
2023/12/13 04:58:42;;;;;;;0.60;0.60;;;23.60;50.30;;;;;;3110109;28;20046;-43
2023/12/13 05:00:13;;;;;;;0.60;0.60;;;23.60;50.30;;;;;;3109690;28;20046;-44
2023/12/13 05:01:45;;;;;;;0.60;0.60;;;23.60;50.30;;;;;;3108150;28;20049;-45
2023/12/13 05:03:16;;;;;;;0.60;0.50;;;23.60;50.20;;;;;;3107619;28;20054;-51
2023/12/13 05:04:47;;;;;;;0.50;0.50;;;23.60;50.30;;;;;;3109925;28;20324;-42
2023/12/13 05:06:19;;;;;;;1.50;0.50;;;23.70;50.30;;;;;;3110487;28;20042;-44
2023/12/13 05:07:50;;;;;;;1.58;0.50;;;23.60;50.40;;;;;;3110388;28;20073;-42
2023/12/13 05:09:21;;;;;;;0.60;0.60;;;23.60;50.30;;;;;;3110303;28;20050;-48
2023/12/13 05:10:54;;;;;;;0.57;0.57;;;23.60;50.40;;;;;;3109507;28;20056;-42
2023/12/13 05:12:25;;;;;;;1.48;0.50;;;23.60;50.40;;;;;;3109644;28;20057;-43
2023/12/13 05:13:56;;;;;;;0.50;0.50;;;23.60;50.40;;;;;;3108833;28;20423;-45
2023/12/13 05:15:28;;;;;;;0.77;0.50;;;23.70;50.40;;;;;;3109928;28;20495;-43
2023/12/13 05:16:59;;;;;;;0.70;0.60;;;23.70;50.40;;;;;;3110280;28;20049;-44
2023/12/13 05:18:30;;;;;;;0.55;0.55;;;23.70;50.40;;;;;;3109702;28;20412;-45
2023/12/13 05:20:03;;;;;;;0.60;0.60;;;23.70;50.40;;;;;;3110513;28;20096;-46
2023/12/13 05:21:35;;;;;;;0.60;0.60;;;23.70;50.40;;;;;;3110439;28;20045;-43
2023/12/13 05:23:06;;;;;;;2.03;0.60;;;23.70;50.60;;;;;;3110421;28;20045;-42
2023/12/13 05:24:37;;;;;;;0.50;0.50;;;23.70;50.60;;;;;;3110168;28;20052;-44
2023/12/13 05:26:09;;;;;;;0.50;0.50;;;23.70;50.70;;;;;;3108850;28;20045;-45
2023/12/13 05:27:42;;;;;;;0.50;0.50;;;23.70;50.70;;;;;;3109068;28;20045;-44
2023/12/13 05:29:13;;;;;;;0.50;0.50;;;23.80;50.70;;;;;;3110211;28;20140;-49
2023/12/13 05:30:44;;;;;;;0.60;0.60;;;23.80;50.70;;;;;;3108355;28;20527;-43
2023/12/13 05:32:15;;;;;;;0.70;0.60;;;23.80;50.80;;;;;;3110335;28;20045;-46
2023/12/13 05:33:47;;;;;;;1.48;0.50;;;23.80;50.70;;;;;;3110229;28;20049;-42
2023/12/13 05:35:17;;;;;;;1.13;0.60;;;23.90;50.90;;;;;;3109796;28;20056;-46
2023/12/13 05:36:49;;;;;;;0.50;0.50;;;23.90;50.80;;;;;;3110212;28;20411;-43
2023/12/13 05:38:20;;;;;;;0.50;0.50;;;23.90;50.90;;;;;;3110602;28;20480;-44
2023/12/13 05:39:51;;;;;;;0.40;0.40;;;23.90;50.90;;;;;;3110112;28;20057;-43
2023/12/13 05:41:23;;;;;;;0.60;0.60;;;23.90;51.00;;;;;;3108750;28;20057;-44
2023/12/13 05:42:55;;;;;;;0.50;0.50;;;24.00;51.00;;;;;;3110114;28;20057;-42
2023/12/13 05:44:25;;;;;;;1.33;0.50;;;23.90;51.10;;;;;;3108057;28;20065;-46
2023/12/13 05:45:59;;;;;;;0.50;0.50;;;23.90;51.10;;;;;;3108509;28;20495;-42
2023/12/13 05:47:31;;;;;;;0.50;0.50;;;23.90;51.00;;;;;;3109767;28;20088;-47
2023/12/13 05:49:02;;;;;;;0.45;0.45;;;24.00;51.00;;;;;;3109648;28;20053;-46
2023/12/13 05:50:34;;;;;;;0.47;0.47;;;23.90;51.20;;;;;;3110178;28;20385;-48
2023/12/13 05:52:06;;;;;;;0.50;0.50;;;23.90;51.30;;;;;;3111774;28;20112;-45
2023/12/13 05:53:38;;;;;;;0.50;0.50;;;23.90;51.50;;;;;;3109105;28;20503;-44
2023/12/13 05:55:09;;;;;;;0.55;0.55;;;23.90;51.90;;;;;;3110049;28;20045;-43
2023/12/13 05:56:42;;;;;;;0.65;0.57;;;23.80;52.10;;;;;;3109686;28;20432;-43
2023/12/13 05:58:13;;;;;;;0.50;0.50;;;23.90;52.20;;;;;;3109213;28;20056;-43
2023/12/13 05:59:44;;;;;;;0.65;0.50;;;23.80;52.50;;;;;;3109431;28;20046;-42
2023/12/13 06:01:16;;;;;;;1.00;0.55;;;23.80;52.90;;;;;;3109823;28;20096;-43
2023/12/13 06:02:49;;;;;;;4.40;0.63;;;23.70;53.10;;;;;;3108760;28;20064;-43
2023/12/13 06:04:19;;;;;;;1.10;0.68;;;23.70;54.00;;;;;;3109167;28;20416;-48
2023/12/13 06:05:51;;;;;;;0.50;0.50;;;23.50;53.70;;;;;;3109452;28;20042;-45
2023/12/13 06:07:23;;;;;;;0.77;0.45;;;23.60;53.70;;;;;;3108467;28;20085;-42
2023/12/13 06:08:53;;;;;;;1.67;0.63;;;23.70;53.60;;;;;;3109406;28;20057;-42
2023/12/13 06:10:25;;;;;;;1.17;0.50;;;23.70;53.50;;;;;;3108562;28;20054;-42
2023/12/13 06:11:58;;;;;;;1.52;0.50;;;23.80;53.40;;;;;;3109496;28;20480;-44
2023/12/13 06:13:29;;;;;;;;;;;23.70;53.60;;;;;;3107046;28;20042;-46
2023/12/13 06:15:00;;;;;;;0.80;0.70;;;23.60;54.00;;;;;;3109051;28;20371;-42
2023/12/13 06:16:31;;;;;;;1.25;0.60;;;23.50;54.70;;;;;;3109938;28;20038;-42
2023/12/13 06:18:02;;;;;;;1.77;0.70;;;23.50;54.60;;;;;;3108569;28;20069;-42
2023/12/13 06:19:34;;;;;;;2.38;0.68;;;23.50;54.50;;;;;;3109761;28;20586;-45
2023/12/13 06:21:05;;;;;;;4.25;0.80;;;23.40;54.70;;;;;;3110084;28;20081;-42
2023/12/13 06:22:38;;;;;;;1.50;0.60;;;23.40;54.90;;;;;;3110093;28;20037;-42
2023/12/13 06:24:09;;;;;;;0.65;0.65;;;23.30;55.10;;;;;;3110021;28;20046;-42
2023/12/13 06:25:40;;;;;;;1.75;0.70;;;23.30;55.10;;;;;;3108326;28;20142;-44
2023/12/13 06:27:13;;;;;;;0.75;0.70;;;23.30;55.00;;;;;;3109622;28;20500;-42
2023/12/13 06:28:43;;;;;;;2.25;0.68;;;23.30;55.00;;;;;;3108662;28;20105;-46
2023/12/13 06:30:15;;;;;;;2.42;0.50;;;23.30;55.00;;;;;;3107546;28;20419;-44
2023/12/13 06:31:46;;;;;;;0.82;0.57;;;23.30;55.00;;;;;;3109037;28;20077;-43
2023/12/13 06:33:18;;;;;;;0.70;0.70;;;23.30;55.00;;;;;;3109889;28;20057;-42
2023/12/13 06:34:49;;;;;;;1.38;0.60;;;23.30;55.00;;;;;;3108862;28;20054;-42
2023/12/13 06:36:20;;;;;;;1.50;0.68;;;23.30;54.80;;;;;;3109619;28;20496;-46
2023/12/13 06:37:51;;;;;;;2.42;0.65;;;23.30;54.80;;;;;;3108945;28;20082;-45
2023/12/13 06:39:23;;;;;;;1.40;0.65;;;23.50;54.50;;;;;;3108859;28;20064;-48
2023/12/13 06:40:53;;;;;;;2.45;0.70;;;23.50;54.10;;;;;;3107485;28;20092;-43
2023/12/13 06:42:28;;;;;;;5.35;0.93;;;23.40;54.50;;;;;;3106039;28;20050;-43
2023/12/13 06:44:00;;;;;;;0.95;0.70;;;23.40;54.50;;;;;;3107017;28;20072;-42
2023/12/13 06:45:32;;;;;;;0.90;0.70;;;23.40;54.30;;;;;;3105158;28;20042;-43
2023/12/13 06:47:03;;;;;;;2.40;0.90;;;23.40;54.30;;;;;;3108990;28;20076;-45
2023/12/13 06:48:35;;;;;;;7.40;1.80;;;23.50;54.90;;;;;;3109664;28;20054;-44
2023/12/13 06:50:07;;;;;;;7.07;2.17;;;23.50;54.00;;;;;;3110432;28;20457;-42
2023/12/13 06:51:39;;;;;;;6.03;2.17;;;23.50;53.60;;;;;;3109497;28;20038;-43
2023/12/13 06:53:15;;;;;;;10.20;2.45;;;23.60;53.50;;;;;;3111458;28;20081;-42
2023/12/13 06:54:46;;;;;;;9.77;2.60;;;23.60;53.20;;;;;;3109010;28;20081;-43
2023/12/13 06:56:17;;;;;;;9.02;2.50;;;23.60;52.80;;;;;;3107991;28;20043;-42
2023/12/13 06:57:50;;;;;;;7.53;2.65;;;23.60;52.70;;;;;;3110255;28;20057;-46
2023/12/13 06:59:21;;;;;;;9.70;2.70;;;23.70;52.60;;;;;;3110991;28;20045;-42
2023/12/13 07:00:52;;;;;;;8.18;2.47;;;23.80;52.60;;;;;;3111405;28;20077;-42
2023/12/13 07:02:23;;;;;;;8.07;2.50;;;23.80;52.50;;;;;;3111441;28;20053;-42
2023/12/13 07:03:54;;;;;;;7.07;2.58;;;24.00;51.80;;;;;;3111298;28;20050;-42
2023/12/13 07:05:26;;;;;;;8.10;2.20;;;24.00;51.20;;;;;;3110825;28;20042;-44
2023/12/13 07:06:58;;;;;;;7.10;2.17;;;24.00;50.90;;;;;;3110238;28;20053;-42
2023/12/13 07:08:30;;;;;;;9.98;2.13;;;23.90;50.50;;;;;;3109871;28;20124;-42
2023/12/13 07:10:01;;;;;;;5.90;2.13;;;23.80;50.00;;;;;;3111298;28;20054;-42
2023/12/13 07:11:32;;;;;;;6.57;2.35;;;23.90;49.90;;;;;;3108015;28;20050;-43
2023/12/13 07:13:05;;;;;;;7.15;2.38;;;24.10;49.10;;;;;;3109318;28;20042;-45
2023/12/13 07:14:37;;;;;;;5.63;1.75;;;24.20;48.50;;;;;;3111663;28;20077;-42
2023/12/13 07:16:08;;;;;;;3.63;1.60;;;24.30;46.90;;;;;;3111628;28;20049;-43
2023/12/13 07:17:42;;;;;;;4.32;1.98;;;24.30;46.20;;;;;;3110935;28;20065;-42
2023/12/13 07:19:13;;;;;;;6.05;1.80;;;24.30;46.70;;;;;;3110843;28;20103;-43
2023/12/13 07:20:46;;;;;;;2.83;1.65;;;24.20;46.80;;;;;;3112077;28;20127;-46
2023/12/13 07:22:18;;;;;;;3.80;1.80;;;24.30;46.60;;;;;;3112163;28;20124;-43
2023/12/13 07:23:49;;;;;;;10.70;1.77;;;24.50;46.20;;;;;;3107886;28;20128;-42
2023/12/13 07:25:20;;;;;;;3.50;1.60;;;24.60;45.60;;;;;;3111116;28;20046;-47
2023/12/13 07:26:51;;;;;;;6.00;1.83;;;24.70;45.20;;;;;;3109790;28;20069;-44
2023/12/13 07:28:23;;;;;;;2.88;1.75;;;24.80;44.80;;;;;;3111676;28;20073;-44
2023/12/13 07:29:55;;;;;;;3.42;1.88;;;24.70;44.40;;;;;;3110676;28;20061;-45
2023/12/13 07:31:26;;;;;;;3.35;1.60;;;24.80;44.20;;;;;;3111395;28;20049;-42
2023/12/13 07:32:57;;;;;;;2.80;1.60;;;24.80;44.00;;;;;;3111852;28;20053;-44
2023/12/13 07:34:28;;;;;;;3.50;1.70;;;24.90;43.80;;;;;;3111739;28;20566;-42
2023/12/13 07:36:00;;;;;;;3.78;1.70;;;24.90;43.30;;;;;;3110987;28;20045;-43
2023/12/13 07:37:30;;;;;;;3.78;1.70;;;24.90;43.20;;;;;;3111182;28;20049;-47
2023/12/13 07:39:03;;;;;;;3.42;1.50;;;24.90;43.20;;;;;;3111945;28;20061;-43
2023/12/13 07:40:34;;;;;;;2.30;1.30;;;24.90;42.90;;;;;;3112037;28;20092;-42
2023/12/13 07:42:05;;;;;;;3.45;1.58;;;24.90;42.80;;;;;;3111526;28;20066;-44
2023/12/13 07:43:39;;;;;;;2.33;1.33;;;24.90;42.60;;;;;;3111567;28;20397;-42
2023/12/13 07:45:10;;;;;;;3.80;1.67;;;24.80;42.60;;;;;;3112069;28;20096;-42
2023/12/13 07:46:42;;;;;;;2.33;1.50;;;24.80;42.60;;;;;;3111657;28;20152;-45
2023/12/13 07:48:12;;;;;;;1.88;1.60;;;24.80;42.40;;;;;;3111950;28;20049;-42
2023/12/13 07:49:44;;;;;;;2.25;1.40;;;24.70;42.30;;;;;;3106740;28;20460;-45
2023/12/13 07:51:15;;;;;;;2.03;1.30;;;24.70;42.30;;;;;;3109686;28;20049;-42
2023/12/13 07:52:46;;;;;;;1.50;1.35;;;24.60;42.20;;;;;;3111891;28;20408;-41
2023/12/13 07:54:18;;;;;;;1.65;1.35;;;24.60;42.20;;;;;;3111854;28;20068;-45
2023/12/13 07:55:50;;;;;;;2.00;1.38;;;24.50;42.20;;;;;;3111586;28;20042;-42